Time;durP1;ratioP1;P1;durP2;ratioP2;P2;SDS_P1;SDS_P2;PMS_P1;PMS_P2;Temp;Humidity;BMP_temperature;BMP_pressure;BME280_temperature;BME280_humidity;BME280_pressure;Samples;Min_cycle;Max_cycle;Signal;HPM_P1;HPM_P2
2022/08/21 00:01:14;;;;;;;14.63;6.75;;;;;;;;;;4379216;32;20081;-67
2022/08/21 00:03:41;;;;;;;16.55;8.52;;;;;;;;;;4340711;32;20461;-66
2022/08/21 00:06:08;;;;;;;14.07;7.53;;;;;;;;;;4364717;32;20523;-66
2022/08/21 00:08:35;;;;;;;11.02;7.87;;;;;;;;;;4378858;32;20161;-67
2022/08/21 00:11:02;;;;;;;16.87;8.00;;;;;;;;;;4340548;32;20103;-67
2022/08/21 00:13:29;;;;;;;15.90;7.85;;;;;;;;;;4365066;32;20081;-67
2022/08/21 00:15:56;;;;;;;15.02;7.80;;;;;;;;;;4364978;32;20439;-66
2022/08/21 00:18:23;;;;;;;18.87;7.75;;;;;;;;;;4367789;32;20079;-68
2022/08/21 00:20:49;;;;;;;16.15;8.10;;;;;;;;;;4369635;32;20096;-66
2022/08/21 00:23:16;;;;;;;18.30;7.50;;;;;;;;;;4366582;32;20153;-67
2022/08/21 00:25:44;;;;;;;20.90;7.82;;;;;;;;;;4353346;32;20082;-67
2022/08/21 00:28:10;;;;;;;15.68;6.82;;;;;;;;;;4335503;33;20078;-68
2022/08/21 00:30:37;;;;;;;14.82;7.30;;;;;;;;;;4335719;33;20082;-66
2022/08/21 00:33:05;;;;;;;17.25;8.05;;;;;;;;;;4348296;33;20150;-68
2022/08/21 00:35:35;;;;;;;19.15;6.87;;;;;;;;;;4348829;33;20516;-67
2022/08/21 00:38:02;;;;;;;14.38;6.90;;;;;;;;;;4335280;33;20543;-67
2022/08/21 00:40:39;;;;;;;16.37;7.12;;;;;;;;;;4347362;33;20150;-66
2022/08/21 00:43:08;;;;;;;11.05;6.18;;;;;;;;;;4335276;33;20594;-66
2022/08/21 00:45:34;;;;;;;14.15;6.22;;;;;;;;;;4335610;33;20075;-67
2022/08/21 00:48:01;;;;;;;12.40;6.62;;;;;;;;;;4347359;33;20078;-68
2022/08/21 00:50:31;;;;;;;14.35;7.18;;;;;;;;;;4334807;33;20157;-67
2022/08/21 00:52:59;;;;;;;12.77;5.97;;;;;;;;;;4335991;33;20077;-67
2022/08/21 00:55:27;;;;;;;16.85;6.97;;;;;;;;;;4334838;33;20142;-66
2022/08/21 00:57:56;;;;;;;19.67;6.47;;;;;;;;;;4334855;33;20083;-67
2022/08/21 01:00:31;;;;;;;18.90;7.55;;;;;;;;;;4335159;32;20515;-66
2022/08/21 01:02:59;;;;;;;17.58;6.40;;;;;;;;;;4335460;33;20074;-67
2022/08/21 01:05:27;;;;;;;18.15;7.90;;;;;;;;;;4346779;33;20526;-66
2022/08/21 01:07:56;;;;;;;21.33;8.45;;;;;;;;;;4334530;33;20079;-68
2022/08/21 01:10:24;;;;;;;20.45;8.38;;;;;;;;;;4334543;33;20525;-67
2022/08/21 01:12:53;;;;;;;17.27;7.95;;;;;;;;;;4334414;33;20094;-68
2022/08/21 01:15:20;;;;;;;20.08;8.30;;;;;;;;;;4311183;33;20433;-66
2022/08/21 01:17:47;;;;;;;19.87;8.43;;;;;;;;;;4346977;33;20162;-67
2022/08/21 01:20:14;;;;;;;20.30;8.20;;;;;;;;;;4335385;33;20154;-67
2022/08/21 01:22:41;;;;;;;18.48;9.15;;;;;;;;;;4347143;33;20094;-67
2022/08/21 01:25:10;;;;;;;22.60;8.68;;;;;;;;;;4334466;33;20082;-66
2022/08/21 01:27:37;;;;;;;16.00;8.30;;;;;;;;;;4334443;33;20095;-66
2022/08/21 01:30:20;;;;;;;18.10;8.50;;;;;;;;;;4364382;32;20081;-67
2022/08/21 01:32:47;;;;;;;15.18;8.50;;;;;;;;;;4377669;32;20092;-66
2022/08/21 01:35:15;;;;;;;18.83;8.45;;;;;;;;;;4351379;32;20077;-66
2022/08/21 01:37:42;;;;;;;18.37;8.43;;;;;;;;;;4363511;32;20150;-66
2022/08/21 01:40:10;;;;;;;18.12;7.78;;;;;;;;;;4363816;32;20077;-66
2022/08/21 01:42:37;;;;;;;16.10;7.82;;;;;;;;;;4363633;32;20099;-67
2022/08/21 01:45:05;;;;;;;14.20;7.65;;;;;;;;;;4363652;32;20505;-66
2022/08/21 01:47:32;;;;;;;17.65;8.60;;;;;;;;;;4363905;32;20605;-66
2022/08/21 01:49:59;;;;;;;15.07;8.35;;;;;;;;;;4351348;32;20074;-66
2022/08/21 01:52:26;;;;;;;17.23;8.55;;;;;;;;;;4377436;32;20158;-66
2022/08/21 01:54:52;;;;;;;15.27;8.65;;;;;;;;;;4377354;32;20101;-66
2022/08/21 01:57:19;;;;;;;16.62;8.63;;;;;;;;;;4350870;32;20071;-67
2022/08/21 01:59:45;;;;;;;15.10;8.38;;;;;;;;;;4377279;32;20082;-67
2022/08/21 02:02:12;;;;;;;17.20;8.20;;;;;;;;;;4377010;32;20089;-66
2022/08/21 02:04:39;;;;;;;14.50;7.97;;;;;;;;;;4364026;32;20161;-68
2022/08/21 02:07:05;;;;;;;17.50;7.93;;;;;;;;;;4377005;32;20523;-66
2022/08/21 02:09:33;;;;;;;18.10;8.20;;;;;;;;;;4377762;32;20078;-66
2022/08/21 02:12:00;;;;;;;19.35;8.30;;;;;;;;;;4363035;32;20533;-67
2022/08/21 02:14:27;;;;;;;17.12;8.05;;;;;;;;;;4338232;32;20070;-67
2022/08/21 02:16:53;;;;;;;17.17;7.93;;;;;;;;;;4363130;32;20493;-67
2022/08/21 02:19:20;;;;;;;18.87;7.95;;;;;;;;;;4350716;32;20079;-67
2022/08/21 02:21:47;;;;;;;16.65;7.68;;;;;;;;;;4377076;32;20082;-67
2022/08/21 02:24:13;;;;;;;18.35;8.80;;;;;;;;;;4362954;32;20098;-69
2022/08/21 02:26:40;;;;;;;24.95;8.50;;;;;;;;;;4363181;32;20080;-67
2022/08/21 02:29:07;;;;;;;21.25;7.90;;;;;;;;;;4362415;32;20105;-67
2022/08/21 02:31:33;;;;;;;18.80;7.87;;;;;;;;;;4350478;32;20071;-66
2022/08/21 02:34:00;;;;;;;15.52;8.02;;;;;;;;;;4350432;32;20150;-67
2022/08/21 02:36:27;;;;;;;18.35;7.90;;;;;;;;;;4350993;32;20156;-66
2022/08/21 02:38:53;;;;;;;16.67;8.07;;;;;;;;;;4338287;32;20149;-67
2022/08/21 02:41:21;;;;;;;19.98;7.60;;;;;;;;;;4376652;32;20162;-67
2022/08/21 02:43:49;;;;;;;14.65;7.50;;;;;;;;;;4363535;32;20077;-66
2022/08/21 02:46:18;;;;;;;16.33;8.05;;;;;;;;;;4350455;32;20070;-67
2022/08/21 02:48:46;;;;;;;22.30;8.60;;;;;;;;;;4363341;32;20167;-67
2022/08/21 02:51:18;;;;;;;16.48;8.00;;;;;;;;;;4352217;32;20074;-67
2022/08/21 02:53:46;;;;;;;18.20;7.75;;;;;;;;;;4365987;32;20174;-67
2022/08/21 02:56:17;;;;;;;15.82;7.72;;;;;;;;;;4363605;32;20090;-68
2022/08/21 02:58:46;;;;;;;15.20;7.40;;;;;;;;;;4362967;32;20072;-67
2022/08/21 03:01:13;;;;;;;16.45;8.15;;;;;;;;;;4362678;32;20634;-67
2022/08/21 03:03:42;;;;;;;20.42;8.77;;;;;;;;;;4363665;32;20157;-67
2022/08/21 03:06:12;;;;;;;16.58;8.27;;;;;;;;;;4362993;32;20070;-66
2022/08/21 03:08:39;;;;;;;18.67;8.32;;;;;;;;;;4350170;32;20651;-66
2022/08/21 03:11:06;;;;;;;18.62;8.80;;;;;;;;;;4350231;32;20089;-66
2022/08/21 03:13:33;;;;;;;21.25;7.97;;;;;;;;;;4376276;32;20162;-66
2022/08/21 03:16:00;;;;;;;13.90;7.55;;;;;;;;;;4376735;32;20081;-66
2022/08/21 03:18:27;;;;;;;14.68;7.65;;;;;;;;;;4350180;32;20562;-66
2022/08/21 03:20:54;;;;;;;12.75;7.68;;;;;;;;;;4376476;32;20082;-67
2022/08/21 03:23:20;;;;;;;14.15;7.37;;;;;;;;;;4361954;32;20081;-66
2022/08/21 03:25:48;;;;;;;18.67;8.02;;;;;;;;;;4376485;32;20560;-67
2022/08/21 03:28:18;;;;;;;16.17;8.05;;;;;;;;;;4361825;32;20147;-67
2022/08/21 03:30:46;;;;;;;13.20;8.15;;;;;;;;;;4362903;32;20158;-66
2022/08/21 03:33:13;;;;;;;13.02;7.40;;;;;;;;;;4350099;32;20588;-67
2022/08/21 03:35:41;;;;;;;16.48;8.25;;;;;;;;;;4350014;32;20170;-67
2022/08/21 03:38:08;;;;;;;12.98;8.27;;;;;;;;;;4376087;32;20081;-66
2022/08/21 03:40:34;;;;;;;16.27;8.05;;;;;;;;;;4362121;32;20534;-66
2022/08/21 03:43:01;;;;;;;15.00;8.25;;;;;;;;;;4362381;32;20174;-67
2022/08/21 03:45:28;;;;;;;15.55;8.00;;;;;;;;;;4337879;32;20087;-67
2022/08/21 03:47:57;;;;;;;17.85;8.20;;;;;;;;;;4362383;32;20600;-67
2022/08/21 03:50:26;;;;;;;14.55;8.32;;;;;;;;;;4376203;32;20089;-67
2022/08/21 03:52:53;;;;;;;17.50;8.23;;;;;;;;;;4349591;32;20084;-68
2022/08/21 03:55:19;;;;;;;12.32;7.40;;;;;;;;;;4375754;32;20078;-68
2022/08/21 03:57:46;;;;;;;13.73;7.50;;;;;;;;;;4350121;32;20090;-67
2022/08/21 04:00:14;;;;;;;12.88;7.80;;;;;;;;;;4376135;32;20074;-67
2022/08/21 04:02:43;;;;;;;10.95;7.72;;;;;;;;;;4362441;32;20085;-67
2022/08/21 04:05:11;;;;;;;13.18;7.50;;;;;;;;;;4362223;32;20098;-66
2022/08/21 04:07:38;;;;;;;11.48;6.70;;;;;;;;;;4349513;32;20089;-68
2022/08/21 04:10:06;;;;;;;11.70;6.93;;;;;;;;;;4362546;32;20093;-66
2022/08/21 04:12:32;;;;;;;12.63;7.15;;;;;;;;;;4362286;32;20536;-67
2022/08/21 04:15:01;;;;;;;13.55;7.55;;;;;;;;;;4361663;32;20531;-66
2022/08/21 04:17:28;;;;;;;12.63;7.15;;;;;;;;;;4375797;32;20123;-66
2022/08/21 04:19:54;;;;;;;11.23;6.80;;;;;;;;;;4376033;32;20154;-67
2022/08/21 04:22:22;;;;;;;12.32;7.07;;;;;;;;;;4375637;32;20086;-67
2022/08/21 04:24:49;;;;;;;11.70;7.05;;;;;;;;;;4362628;32;20074;-67
2022/08/21 04:27:16;;;;;;;11.05;6.35;;;;;;;;;;4362154;32;20540;-67
2022/08/21 04:29:42;;;;;;;12.32;6.50;;;;;;;;;;4349091;32;20085;-66
2022/08/21 04:32:09;;;;;;;11.35;6.30;;;;;;;;;;4362069;32;20520;-67
2022/08/21 04:34:36;;;;;;;13.05;6.82;;;;;;;;;;4362212;32;20088;-67
2022/08/21 04:37:02;;;;;;;11.35;7.28;;;;;;;;;;4363692;32;20078;-67
2022/08/21 04:39:29;;;;;;;12.68;7.07;;;;;;;;;;4365010;32;20082;-67
2022/08/21 04:41:56;;;;;;;11.10;7.90;;;;;;;;;;4378334;32;20464;-66
2022/08/21 04:44:23;;;;;;;10.95;6.80;;;;;;;;;;4378304;32;20460;-67
2022/08/21 04:46:50;;;;;;;15.07;7.00;;;;;;;;;;4351977;32;20078;-67
2022/08/21 04:49:17;;;;;;;12.40;7.45;;;;;;;;;;4352072;32;20074;-67
2022/08/21 04:51:43;;;;;;;11.45;7.45;;;;;;;;;;4351914;32;20166;-67
2022/08/21 04:54:15;;;;;;;15.18;9.10;;;;;;;;;;4379062;32;20069;-67
2022/08/21 04:56:56;;;;;;;15.10;8.30;;;;;;;;;;4352667;32;20093;-68
2022/08/21 04:59:33;;;;;;;15.10;9.07;;;;;;;;;;4364263;32;20065;-68
2022/08/21 05:02:00;;;;;;;15.50;8.98;;;;;;;;;;4377937;32;20094;-68
2022/08/21 05:04:30;;;;;;;16.92;9.32;;;;;;;;;;4339635;32;20489;-67
2022/08/21 05:07:00;;;;;;;15.95;9.27;;;;;;;;;;4365041;32;20070;-67
2022/08/21 05:09:28;;;;;;;16.80;9.20;;;;;;;;;;4351794;32;20078;-68
2022/08/21 05:11:55;;;;;;;20.08;11.35;;;;;;;;;;4364001;32;20106;-67
2022/08/21 05:14:22;;;;;;;18.95;10.60;;;;;;;;;;4351385;32;20518;-67
2022/08/21 05:16:49;;;;;;;16.15;9.55;;;;;;;;;;4352001;32;20085;-67
2022/08/21 05:19:15;;;;;;;19.90;10.15;;;;;;;;;;4352948;32;20085;-67
2022/08/21 05:21:43;;;;;;;17.87;10.65;;;;;;;;;;4352090;32;20176;-68
2022/08/21 05:24:11;;;;;;;24.70;11.00;;;;;;;;;;4378278;32;20157;-67
2022/08/21 05:26:38;;;;;;;19.92;10.75;;;;;;;;;;4354273;32;20081;-67
2022/08/21 05:29:05;;;;;;;17.35;9.60;;;;;;;;;;4385835;32;20100;-67
2022/08/21 05:31:32;;;;;;;26.35;11.12;;;;;;;;;;4352066;32;20467;-68
2022/08/21 05:33:59;;;;;;;22.08;11.23;;;;;;;;;;4377899;32;20078;-67
2022/08/21 05:36:25;;;;;;;18.85;10.55;;;;;;;;;;4377583;32;20154;-67
2022/08/21 05:38:52;;;;;;;23.38;11.05;;;;;;;;;;4377585;32;20084;-67
2022/08/21 05:41:19;;;;;;;23.08;10.43;;;;;;;;;;4363522;32;20091;-69
2022/08/21 05:43:45;;;;;;;22.33;11.05;;;;;;;;;;4363827;32;20070;-68
2022/08/21 05:46:12;;;;;;;34.55;14.25;;;;;;;;;;4363992;32;20086;-68
2022/08/21 05:48:38;;;;;;;23.00;12.23;;;;;;;;;;4363877;32;20084;-67
2022/08/21 05:51:12;;;;;;;25.12;12.68;;;;;;;;;;4363548;32;20073;-67
2022/08/21 05:53:39;;;;;;;27.30;11.48;;;;;;;;;;4351047;32;20150;-68
2022/08/21 05:56:06;;;;;;;20.77;9.75;;;;;;;;;;4363983;32;20078;-68
2022/08/21 05:58:36;;;;;;;15.82;8.98;;;;;;;;;;4377258;32;20161;-67
2022/08/21 06:01:03;;;;;;;17.62;9.35;;;;;;;;;;4364071;32;20075;-66
2022/08/21 06:03:33;;;;;;;17.33;9.57;;;;;;;;;;4350927;32;20154;-67
2022/08/21 06:06:01;;;;;;;19.62;9.73;;;;;;;;;;4363495;32;20094;-67
2022/08/21 06:08:27;;;;;;;17.08;8.63;;;;;;;;;;4350761;32;20538;-68
2022/08/21 06:10:56;;;;;;;14.45;8.98;;;;;;;;;;4350773;32;20071;-68
2022/08/21 06:13:23;;;;;;;16.15;9.07;;;;;;;;;;4363239;32;20587;-67
2022/08/21 06:15:50;;;;;;;16.77;9.68;;;;;;;;;;4363279;32;20163;-68
2022/08/21 06:18:17;;;;;;;19.12;10.50;;;;;;;;;;4377166;32;20492;-68
2022/08/21 06:20:45;;;;;;;15.93;9.35;;;;;;;;;;4376842;32;20508;-68
2022/08/21 06:23:12;;;;;;;10.35;7.43;;;;;;;;;;4350882;32;20086;-67
2022/08/21 06:25:38;;;;;;;15.15;10.00;;;;;;;;;;4350686;32;20159;-68
2022/08/21 06:28:07;;;;;;;16.58;8.65;;;;;;;;;;4363590;32;20070;-67
2022/08/21 06:30:35;;;;;;;14.40;9.70;;;;;;;;;;4363151;32;20090;-68
2022/08/21 06:33:02;;;;;;;11.73;7.53;;;;;;;;;;4351459;32;20166;-67
2022/08/21 06:35:30;;;;;;;10.23;7.50;;;;;;;;;;4350895;32;20074;-67
2022/08/21 06:37:57;;;;;;;11.60;6.95;;;;;;;;;;4338233;32;20085;-68
2022/08/21 06:40:24;;;;;;;9.68;6.45;;;;;;;;;;4376942;32;20161;-68
2022/08/21 06:42:51;;;;;;;8.98;5.90;;;;;;;;;;4362994;32;20097;-68
2022/08/21 06:45:18;;;;;;;8.20;5.05;;;;;;;;;;4362683;32;20091;-67
2022/08/21 06:47:44;;;;;;;6.55;5.03;;;;;;;;;;4363056;32;20076;-67
2022/08/21 06:50:12;;;;;;;6.47;4.85;;;;;;;;;;4362639;32;20527;-67
2022/08/21 06:52:39;;;;;;;11.25;5.97;;;;;;;;;;4376792;32;20081;-67
2022/08/21 06:55:07;;;;;;;11.18;5.82;;;;;;;;;;4376442;32;20074;-67
2022/08/21 06:57:34;;;;;;;8.25;5.40;;;;;;;;;;4362641;32;20128;-68
2022/08/21 07:00:02;;;;;;;9.30;5.62;;;;;;;;;;4350443;32;20094;-67
2022/08/21 07:02:29;;;;;;;7.72;5.55;;;;;;;;;;4350555;32;20083;-68
2022/08/21 07:04:56;;;;;;;7.57;5.62;;;;;;;;;;4363200;32;20098;-67
2022/08/21 07:07:22;;;;;;;7.72;5.15;;;;;;;;;;4350272;32;20078;-68
2022/08/21 07:09:49;;;;;;;9.07;5.18;;;;;;;;;;4362893;32;20078;-67
2022/08/21 07:12:16;;;;;;;7.43;4.87;;;;;;;;;;4362434;32;20084;-67
2022/08/21 07:14:42;;;;;;;9.68;5.40;;;;;;;;;;4349929;32;20460;-67
2022/08/21 07:17:09;;;;;;;8.27;4.95;;;;;;;;;;4350000;32;20077;-68
2022/08/21 07:19:35;;;;;;;6.87;5.25;;;;;;;;;;4376322;32;20074;-68
2022/08/21 07:22:03;;;;;;;7.70;5.18;;;;;;;;;;4362437;32;20104;-68
2022/08/21 07:24:30;;;;;;;7.25;5.22;;;;;;;;;;4376256;32;20081;-67
2022/08/21 07:26:56;;;;;;;7.53;5.20;;;;;;;;;;4362619;32;20161;-68
2022/08/21 07:29:23;;;;;;;7.10;5.37;;;;;;;;;;4375825;32;20639;-68
2022/08/21 07:31:50;;;;;;;9.63;4.90;;;;;;;;;;4362847;32;20098;-69
2022/08/21 07:34:16;;;;;;;8.75;5.68;;;;;;;;;;4362080;32;20551;-67
2022/08/21 07:36:43;;;;;;;9.00;5.45;;;;;;;;;;4362483;32;20077;-68
2022/08/21 07:39:10;;;;;;;9.43;5.53;;;;;;;;;;4376140;32;20077;-67
2022/08/21 07:41:37;;;;;;;6.85;5.07;;;;;;;;;;4350476;32;20145;-68
2022/08/21 07:44:04;;;;;;;7.05;4.68;;;;;;;;;;4362989;32;20097;-68
2022/08/21 07:46:30;;;;;;;7.80;4.95;;;;;;;;;;4362372;32;20082;-67
2022/08/21 07:48:57;;;;;;;8.32;5.10;;;;;;;;;;4376329;32;20069;-67
2022/08/21 07:51:26;;;;;;;7.15;5.50;;;;;;;;;;4376480;32;20152;-67
2022/08/21 07:53:55;;;;;;;6.18;5.00;;;;;;;;;;4362585;32;20083;-68
2022/08/21 07:56:22;;;;;;;6.87;5.60;;;;;;;;;;4337906;32;20090;-67
2022/08/21 07:58:49;;;;;;;6.93;5.07;;;;;;;;;;4375697;32;20096;-69
2022/08/21 08:01:16;;;;;;;8.85;5.65;;;;;;;;;;4375853;32;20086;-67
2022/08/21 08:03:43;;;;;;;9.98;4.90;;;;;;;;;;4362002;32;20086;-68
2022/08/21 08:06:12;;;;;;;5.50;4.25;;;;;;;;;;4349883;32;20516;-67
2022/08/21 08:08:40;;;;;;;10.15;4.72;;;;;;;;;;4363126;32;20489;-68
2022/08/21 08:11:09;;;;;;;10.05;5.40;;;;;;;;;;4351351;32;20082;-66
2022/08/21 08:13:47;;;;;;;8.95;5.10;;;;;;;;;;4364953;32;20086;-68
2022/08/21 08:16:15;;;;;;;7.97;4.87;;;;;;;;;;4364801;32;20077;-68
2022/08/21 08:18:42;;;;;;;7.15;4.90;;;;;;;;;;4352988;32;20071;-67
2022/08/21 08:21:10;;;;;;;6.55;5.07;;;;;;;;;;4364602;32;20070;-68
2022/08/21 08:23:36;;;;;;;7.00;4.85;;;;;;;;;;4364769;32;20058;-67
2022/08/21 08:26:03;;;;;;;6.40;4.65;;;;;;;;;;4364733;32;20085;-67
2022/08/21 08:28:31;;;;;;;8.10;4.55;;;;;;;;;;4364409;32;20137;-67
2022/08/21 08:30:59;;;;;;;6.32;4.90;;;;;;;;;;4378889;32;20527;-68
2022/08/21 08:33:25;;;;;;;8.40;4.93;;;;;;;;;;4364588;32;20516;-68
2022/08/21 08:35:52;;;;;;;6.15;4.57;;;;;;;;;;4364683;32;20077;-68
2022/08/21 08:38:21;;;;;;;7.25;5.10;;;;;;;;;;4378480;32;20157;-67
2022/08/21 08:41:09;;;;;;;7.05;5.00;;;;;;;;;;4364631;32;20157;-67
2022/08/21 08:43:36;;;;;;;6.80;4.35;;;;;;;;;;4378491;32;20077;-68
2022/08/21 08:46:06;;;;;;;7.95;4.78;;;;;;;;;;4378348;32;20526;-68
2022/08/21 08:48:53;;;;;;;7.25;4.90;;;;;;;;;;4364641;32;20076;-68
2022/08/21 08:51:51;;;;;;;5.93;4.80;;;;;;;;;;4339611;32;20154;-68
2022/08/21 08:54:31;;;;;;;6.82;4.85;;;;;;;;;;4352109;32;20160;-67
2022/08/21 08:57:00;;;;;;;8.13;4.95;;;;;;;;;;4352613;32;20157;-67
2022/08/21 08:59:36;;;;;;;8.75;5.00;;;;;;;;;;4352012;32;20444;-68
2022/08/21 09:02:04;;;;;;;5.82;4.35;;;;;;;;;;4352048;32;20075;-68
2022/08/21 09:04:30;;;;;;;6.50;4.82;;;;;;;;;;4351865;32;20070;-68
2022/08/21 09:07:31;;;;;;;9.60;5.12;;;;;;;;;;4364416;32;20161;-67
2022/08/21 09:10:16;;;;;;;7.78;5.07;;;;;;;;;;4378296;32;20086;-67
2022/08/21 09:13:14;;;;;;;6.90;5.12;;;;;;;;;;4352737;32;20101;-68
2022/08/21 09:16:16;;;;;;;8.15;5.37;;;;;;;;;;4378322;32;20158;-68
2022/08/21 09:19:21;;;;;;;6.65;5.12;;;;;;;;;;4340474;32;20066;-67
2022/08/21 09:22:09;;;;;;;6.22;4.20;;;;;;;;;;4351625;32;20097;-68
2022/08/21 09:24:54;;;;;;;4.95;3.95;;;;;;;;;;4351649;32;20461;-68
2022/08/21 09:27:22;;;;;;;7.40;5.60;;;;;;;;;;4377986;32;20093;-69
2022/08/21 09:29:53;;;;;;;8.77;5.45;;;;;;;;;;4363845;32;20088;-67
2022/08/21 09:32:22;;;;;;;5.85;4.30;;;;;;;;;;4363747;32;20523;-67
2022/08/21 09:35:15;;;;;;;6.85;5.10;;;;;;;;;;4364181;32;20089;-68
2022/08/21 09:38:06;;;;;;;7.10;4.97;;;;;;;;;;4351811;32;20449;-68
2022/08/21 09:40:44;;;;;;;8.40;5.07;;;;;;;;;;4351815;32;20236;-68
2022/08/21 09:43:14;;;;;;;6.12;4.35;;;;;;;;;;4352039;32;20080;-68
2022/08/21 09:45:42;;;;;;;6.28;4.18;;;;;;;;;;4377650;32;20585;-68
2022/08/21 09:48:11;;;;;;;7.18;4.82;;;;;;;;;;4363802;32;20078;-68
2022/08/21 09:50:38;;;;;;;6.30;4.60;;;;;;;;;;4351403;32;20165;-68
2022/08/21 09:53:05;;;;;;;5.80;4.35;;;;;;;;;;4339052;32;20530;-67
2022/08/21 09:58:38;;;;;;;7.00;4.78;;;;;;;;;;4377875;32;20096;-69
2022/08/21 10:01:07;;;;;;;8.30;4.93;;;;;;;;;;4351678;32;20170;-68
2022/08/21 10:03:33;;;;;;;5.47;4.35;;;;;;;;;;4363472;32;20634;-68
2022/08/21 10:06:11;;;;;;;8.07;4.78;;;;;;;;;;4356374;32;20093;-67
2022/08/21 10:08:40;;;;;;;7.12;4.85;;;;;;;;;;4364069;32;20082;-68
2022/08/21 10:11:09;;;;;;;6.55;4.68;;;;;;;;;;4363444;32;20089;-67
2022/08/21 10:13:39;;;;;;;6.97;4.95;;;;;;;;;;4363506;32;20552;-68
2022/08/21 10:16:24;;;;;;;10.02;5.45;;;;;;;;;;4376989;32;20493;-67
2022/08/21 10:19:36;;;;;;;6.95;4.85;;;;;;;;;;4363573;32;20175;-67
2022/08/21 10:22:29;;;;;;;5.47;4.40;;;;;;;;;;4362354;32;20078;-68
2022/08/21 10:25:06;;;;;;;10.00;4.95;;;;;;;;;;4350861;32;20198;-68
2022/08/21 10:27:48;;;;;;;6.40;4.57;;;;;;;;;;4350678;32;20089;-68
2022/08/21 10:30:52;;;;;;;8.43;5.25;;;;;;;;;;4376882;32;20070;-67
2022/08/21 10:33:18;;;;;;;7.03;4.43;;;;;;;;;;4376786;32;20073;-67
2022/08/21 10:36:00;;;;;;;8.88;4.72;;;;;;;;;;4379994;32;20065;-68
2022/08/21 10:38:43;;;;;;;6.68;5.18;;;;;;;;;;4381675;32;20120;-67
2022/08/21 10:41:22;;;;;;;7.15;5.57;;;;;;;;;;4362953;32;20089;-67
2022/08/21 10:43:56;;;;;;;7.43;4.75;;;;;;;;;;4377153;32;20067;-67
2022/08/21 10:46:41;;;;;;;6.53;4.90;;;;;;;;;;4362591;32;20588;-68
2022/08/21 10:49:27;;;;;;;6.68;5.20;;;;;;;;;;4376959;32;20085;-68
2022/08/21 10:52:17;;;;;;;9.52;4.80;;;;;;;;;;4376993;32;20078;-67
2022/08/21 10:54:49;;;;;;;8.10;5.00;;;;;;;;;;4363362;32;20088;-68
2022/08/21 10:57:50;;;;;;;7.32;4.43;;;;;;;;;;4362608;32;20078;-70
2022/08/21 11:00:20;;;;;;;7.00;4.32;;;;;;;;;;4350702;32;20160;-68
2022/08/21 11:03:04;;;;;;;7.75;5.00;;;;;;;;;;4351137;32;20108;-68
2022/08/21 11:05:53;;;;;;;7.15;4.78;;;;;;;;;;4362563;32;20093;-67
2022/08/21 11:08:28;;;;;;;6.60;4.70;;;;;;;;;;4376688;32;20157;-66
2022/08/21 11:11:15;;;;;;;10.05;5.60;;;;;;;;;;4363674;32;20074;-68
2022/08/21 11:13:47;;;;;;;7.37;4.55;;;;;;;;;;4362677;32;20589;-69
2022/08/21 11:16:43;;;;;;;7.47;4.75;;;;;;;;;;4362522;32;20094;-67
2022/08/21 11:19:35;;;;;;;5.30;3.92;;;;;;;;;;4350258;32;20457;-69
2022/08/21 11:22:30;;;;;;;8.77;4.82;;;;;;;;;;4362340;32;20589;-68
2022/08/21 11:25:18;;;;;;;7.07;4.70;;;;;;;;;;4376234;32;20074;-68
2022/08/21 11:28:06;;;;;;;7.87;5.18;;;;;;;;;;4362733;32;20154;-69
2022/08/21 11:30:46;;;;;;;6.25;4.50;;;;;;;;;;4349846;32;20086;-68
2022/08/21 11:33:27;;;;;;;6.25;4.72;;;;;;;;;;4376642;32;20090;-68
2022/08/21 11:36:59;;;;;;;7.90;5.00;;;;;;;;;;4350565;32;20177;-68
2022/08/21 11:39:27;;;;;;;6.35;4.47;;;;;;;;;;4296512;33;20099;-68
2022/08/21 11:42:02;;;;;;;6.30;4.20;;;;;;;;;;4364979;32;20089;-68
2022/08/21 11:45:05;;;;;;;8.05;3.50;;;;;;;;;;4377303;32;20183;-67
2022/08/21 11:47:53;;;;;;;8.27;4.25;;;;;;;;;;4357999;32;20086;-67
2022/08/21 11:50:27;;;;;;;6.87;4.25;;;;;;;;;;4352948;32;20107;-67
2022/08/21 11:52:57;;;;;;;6.30;4.62;;;;;;;;;;4352893;32;20085;-67
2022/08/21 11:55:36;;;;;;;7.93;5.60;;;;;;;;;;4379361;32;20065;-67
2022/08/21 11:58:10;;;;;;;7.15;5.07;;;;;;;;;;4352769;32;20066;-67
2022/08/21 12:00:54;;;;;;;6.95;4.87;;;;;;;;;;4365025;32;20162;-68
2022/08/21 12:03:27;;;;;;;6.62;5.22;;;;;;;;;;4366099;32;20077;-67
2022/08/21 12:06:12;;;;;;;6.57;5.20;;;;;;;;;;4353086;32;20077;-67
2022/08/21 12:08:46;;;;;;;6.70;4.78;;;;;;;;;;4365543;32;20495;-67
2022/08/21 12:11:19;;;;;;;6.65;4.28;;;;;;;;;;4340476;32;20097;-67
2022/08/21 12:14:04;;;;;;;6.85;4.95;;;;;;;;;;4378825;32;20070;-68
2022/08/21 12:16:36;;;;;;;6.65;4.80;;;;;;;;;;4365142;32;20065;-67
2022/08/21 12:19:30;;;;;;;5.82;4.30;;;;;;;;;;4365285;32;20163;-68
2022/08/21 12:22:06;;;;;;;8.65;5.05;;;;;;;;;;4365301;32;20163;-67
2022/08/21 12:24:48;;;;;;;6.55;4.78;;;;;;;;;;4364735;32;20512;-67
2022/08/21 12:27:24;;;;;;;6.78;4.90;;;;;;;;;;4365739;32;20074;-67
2022/08/21 12:29:52;;;;;;;;;;;;;;;;;;4379732;32;20167;-68
2022/08/21 12:32:22;;;;;;;8.52;4.90;;;;;;;;;;4352359;32;19965;-68
2022/08/21 12:35:11;;;;;;;6.32;4.87;;;;;;;;;;4364992;32;20154;-67
2022/08/21 12:38:01;;;;;;;9.48;5.53;;;;;;;;;;4352234;32;20169;-68
2022/08/21 12:40:41;;;;;;;5.70;4.22;;;;;;;;;;4353088;32;20079;-67
2022/08/21 12:43:17;;;;;;;5.57;4.53;;;;;;;;;;4364560;32;20077;-68
2022/08/21 12:45:47;;;;;;;6.20;4.18;;;;;;;;;;4364575;32;20085;-68
2022/08/21 12:48:29;;;;;;;6.18;4.47;;;;;;;;;;4365046;32;20580;-68
2022/08/21 12:51:00;;;;;;;8.40;5.18;;;;;;;;;;4365233;32;20573;-67
2022/08/21 12:53:39;;;;;;;8.18;4.53;;;;;;;;;;4352300;32;20095;-68
2022/08/21 12:56:10;;;;;;;6.90;4.80;;;;;;;;;;4339411;32;20078;-67
2022/08/21 12:58:39;;;;;;;7.22;4.85;;;;;;;;;;4364431;32;20154;-68
2022/08/21 13:01:28;;;;;;;7.22;5.55;;;;;;;;;;4351948;32;20138;-68
2022/08/21 13:03:58;;;;;;;7.20;5.18;;;;;;;;;;4364353;32;20081;-67
2022/08/21 13:06:27;;;;;;;7.80;5.82;;;;;;;;;;4352036;32;20076;-67
2022/08/21 13:08:57;;;;;;;9.57;6.40;;;;;;;;;;4364213;32;20150;-68
2022/08/21 13:11:24;;;;;;;9.20;6.07;;;;;;;;;;4369916;32;20157;-68
2022/08/21 13:13:52;;;;;;;11.85;6.57;;;;;;;;;;4381502;32;20111;-68
2022/08/21 13:16:26;;;;;;;9.13;6.18;;;;;;;;;;4378102;32;20084;-68
2022/08/21 13:18:59;;;;;;;12.32;6.60;;;;;;;;;;4364491;32;20587;-67
2022/08/21 13:21:32;;;;;;;9.43;6.72;;;;;;;;;;4364974;32;20526;-67
2022/08/21 13:24:35;;;;;;;9.65;6.65;;;;;;;;;;4364170;32;20165;-68
2022/08/21 13:27:02;;;;;;;9.15;5.80;;;;;;;;;;4333183;32;20097;-67
2022/08/21 13:29:31;;;;;;;9.07;5.87;;;;;;;;;;4363718;32;20175;-67
2022/08/21 13:32:04;;;;;;;10.75;5.50;;;;;;;;;;4364229;32;20081;-67
2022/08/21 13:34:36;;;;;;;9.85;6.05;;;;;;;;;;4363778;32;20437;-68
2022/08/21 13:37:06;;;;;;;7.75;5.70;;;;;;;;;;4339946;32;20445;-67
2022/08/21 13:39:33;;;;;;;7.82;5.53;;;;;;;;;;4377767;32;20078;-68
2022/08/21 13:42:02;;;;;;;8.82;5.65;;;;;;;;;;4339341;32;20132;-67
2022/08/21 13:44:36;;;;;;;8.43;5.80;;;;;;;;;;4351485;32;20078;-68
2022/08/21 13:47:04;;;;;;;6.40;4.40;;;;;;;;;;4377582;32;20225;-67
2022/08/21 13:49:34;;;;;;;9.38;5.60;;;;;;;;;;4351289;32;20545;-68
2022/08/21 13:52:01;;;;;;;7.45;5.00;;;;;;;;;;4377648;32;20168;-68
2022/08/21 13:54:39;;;;;;;5.47;4.28;;;;;;;;;;4351442;32;20163;-67
2022/08/21 13:57:18;;;;;;;9.18;5.12;;;;;;;;;;4351129;32;20101;-69
2022/08/21 13:59:44;;;;;;;6.30;3.95;;;;;;;;;;4363763;32;20090;-68
2022/08/21 14:02:14;;;;;;;8.05;4.50;;;;;;;;;;4363707;32;20539;-66
2022/08/21 14:04:52;;;;;;;7.25;5.15;;;;;;;;;;4364193;32;20577;-68
2022/08/21 14:07:32;;;;;;;9.23;5.45;;;;;;;;;;4363626;32;20070;-67
2022/08/21 14:10:02;;;;;;;9.85;5.95;;;;;;;;;;4362618;32;20078;-68
2022/08/21 14:12:43;;;;;;;8.75;5.50;;;;;;;;;;4377890;32;20556;-67
2022/08/21 14:15:13;;;;;;;7.53;5.30;;;;;;;;;;4363090;32;20070;-67
2022/08/21 14:17:41;;;;;;;10.25;4.72;;;;;;;;;;4363085;32;20497;-66
2022/08/21 14:20:10;;;;;;;7.05;4.65;;;;;;;;;;4377139;32;20132;-68
2022/08/21 14:22:36;;;;;;;11.27;4.93;;;;;;;;;;4363667;32;20157;-68
2022/08/21 14:25:05;;;;;;;7.30;5.20;;;;;;;;;;4377000;32;20084;-67
2022/08/21 14:27:33;;;;;;;7.45;4.75;;;;;;;;;;4362686;32;20521;-67
2022/08/21 14:30:13;;;;;;;6.62;5.40;;;;;;;;;;4350610;32;20067;-67
2022/08/21 14:32:41;;;;;;;6.87;5.15;;;;;;;;;;4363646;32;20171;-67
2022/08/21 14:35:08;;;;;;;7.57;5.25;;;;;;;;;;4363304;32;20077;-67
2022/08/21 14:37:35;;;;;;;6.43;4.90;;;;;;;;;;4350667;32;20073;-67
2022/08/21 14:40:02;;;;;;;8.95;4.12;;;;;;;;;;4363437;32;20090;-67
2022/08/21 14:42:29;;;;;;;6.72;4.90;;;;;;;;;;4362798;32;20073;-68
2022/08/21 14:44:59;;;;;;;8.20;5.90;;;;;;;;;;4362933;32;20141;-68
2022/08/21 14:47:28;;;;;;;8.10;5.40;;;;;;;;;;4353826;32;20192;-68
2022/08/21 14:49:55;;;;;;;8.65;5.37;;;;;;;;;;4353650;32;20070;-67
2022/08/21 14:52:22;;;;;;;7.95;5.40;;;;;;;;;;4362950;32;20087;-66
2022/08/21 14:54:49;;;;;;;8.50;6.05;;;;;;;;;;4363093;32;20077;-68
2022/08/21 14:57:16;;;;;;;9.18;5.80;;;;;;;;;;4376729;32;20074;-67
2022/08/21 14:59:43;;;;;;;8.50;6.15;;;;;;;;;;4362825;32;20078;-67
2022/08/21 15:02:10;;;;;;;10.63;6.87;;;;;;;;;;4350764;32;20157;-68
2022/08/21 15:04:37;;;;;;;10.27;7.00;;;;;;;;;;4376818;32;20077;-66